Tiempo atmosférico en la estación meteorológica de Águilas, Murcia (26 m.)



Fecha
DESCASC
Temp. máxima en grados centígrados (hora)
DESCASC
Temp. mínima en grados centígrados (hora)
DESCASC
Temp. media en grados centígrados
DESCASC
Racha de viento máxima en m/sg (hora)
DESCASC
Velocidad máxima media en intervalos de 10 minutos(hora)
DESCASC
Precipitaciones diarias en mm
DESCASC
Precipitaciones de 00:00 a 06:00 en mm
DESCASC
Precipitaciones de 06:00 a 12:00 en mm
DESCASC
Precipitaciones de 12:00 a 18:00 en mm
DESCASC
Precipitaciones de 18:00 a 24:00 en mm
DESCASC
31-03-2020 18.6 (15:50) 12.2 (08:30) 15.4 7.5 (01:50) 4.44 (01:40) 2.6 0 2.6 0 0
30-03-2020 19.3 (14:50) 10.2 (07:30) 14.7 10.28 (21:50) 5.83 (22:30) 0 0 0 0 0
29-03-2020 19 (16:30) 8 (00:00) 13.5 8.06 (17:20) 3.89 (15:40) 0 0 0 0 0
28-03-2020 17.4 (15:10) 9.5 (00:00) 13.4 7.22 (17:00) 4.72 (17:00) 10 7.6 2.4 0 0
27-03-2020 16.7 (11:50) 11.1 (00:00) 13.9 8.89 (19:40) 5 (19:40) 2.4 0 0 0 2.4
26-03-2020 23.1 (13:10) 8.5 (00:00) 15.8 -- (--) -- (--) 0 0 0 0 0
25-03-2020 18.4 (11:30) 9.9 (00:00) 14.1 9.72 (00:10) 5 (00:10) 0.2 0 0 0 0.2
24-03-2020 14.3 (03:10) 12.6 (00:00) 13.5 21.39 (00:50) 10.83 (08:20) 16.6 1.2 6.4 4.6 4.4
23-03-2020 18 (11:40) 8.8 (00:00) 13.4 13.61 (23:59) 7.22 (22:50) 4 0 0 1.4 2.6
22-03-2020 14.5 (17:10) 9.9 (04:50) 12.2 3.89 (14:50) 2.5 (14:50) 6.8 0 3.2 3.6 0
21-03-2020 16.9 (11:50) 11.1 (00:00) 14 11.67 (12:40) 6.67 (11:50) 13.8 0 0 13.8 0
20-03-2020 18 (17:00) 13.9 (00:00) 15.9 11.94 (10:10) 6.39 (10:00) 0 0 0 0 0
19-03-2020 19.2 (14:40) 14.4 (00:00) 16.8 13.61 (15:10) 7.22 (15:10) 0 0 0 0 0
18-03-2020 20.9 (14:30) 15.6 (00:00) 18.3 15.28 (11:00) 8.61 (13:50) 0 0 0 0 0
17-03-2020 18.7 (16:00) 11.3 (00:00) 15 15.83 (23:00) 7.78 (22:50) 0 0 0 0 0
16-03-2020 19.9 (12:00) 11.5 (00:00) 15.7 10.28 (12:20) 6.11 (12:00) 0 0 0 0 0
15-03-2020 19.2 (11:30) 11.6 (00:00) 15.4 7.78 (14:00) 4.72 (12:20) 0 0 0 0 0
14-03-2020 19.6 (11:10) 12.8 (00:00) 16.2 6.67 (12:10) 4.44 (12:50) 0 0 0 0 0
13-03-2020 21.8 (12:20) 13.5 (04:30) 17.6 7.78 (11:10) 4.72 (11:10) 0 0 0 0 0
12-03-2020 26 (12:30) 12.1 (00:00) 19.1 5.83 (15:20) 3.61 (14:50) 0 0 0 0 0
11-03-2020 21.9 (16:20) 11.5 (00:00) 16.7 5.28 (13:40) 2.78 (13:40) 0 0 0 0 0
10-03-2020 20.3 (10:30) 12.6 (00:00) 16.4 8.61 (11:00) 5.28 (11:50) 0 0 0 0 0
09-03-2020 21.8 (11:10) 12.2 (00:00) 17 6.67 (14:40) 4.17 (15:30) 0 0 0 0 0
08-03-2020 21.1 (11:50) 10.1 (00:00) 15.6 5.28 (13:20) 3.06 (13:20) 0 0 0 0 0
07-03-2020 21 (14:00) 11.3 (00:00) 16.2 10 (18:00) 5 (18:00) 0 0 0 0 0
06-03-2020 23 (15:00) 12.8 (00:00) 17.9 18.06 (04:30) 9.72 (13:00) 0 0 0 0 0
05-03-2020 26.5 (16:30) 10.9 (00:00) 18.7 16.67 (18:10) 10.28 (18:20) 0 0 0 0 0
04-03-2020 25.4 (11:30) 14.4 (00:00) 19.9 11.94 (06:20) 7.5 (06:20) 0 0 0 0 0

Gráficas

Temp. máximas Temp. mínimas Temp. medias Precipitaciones Rachas de viento máximas Velocidades máximas media en intervalos de 10 minutos

Datos horarios

Fecha y hora oficial Temperatura (ºC) Velocidad del viento (km/h) Dirección del viento Racha (km/h) Dirección de racha Precipitación (mm) Presión (hPa) Tendencia (hPa) Humedad (%)
2020-04-02 23:00:00 13.8 6 Este 9 Este 0 1010.2 2.5 69
2020-04-02 22:00:00 14.1 4 Este 10 Sudeste 0 1009.2 1.8 66
2020-04-02 21:00:00 14.6 6 Sudeste 11 Sudeste 0 1008.3 1.2 62
2020-04-02 20:00:00 15.2 6 Este 10 Sudeste 0 1007.7 0.6 59
2020-04-02 19:00:00 15.7 6 Sur 20 Sur 0 1007.4 0.2 57
2020-04-02 18:00:00 16.3 10 Sur 27 Sur 0 1007.1 -0.7 54
2020-04-02 17:00:00 17.3 13 Sudoeste 24 Sudoeste 0 1007.1 -0.6 46
2020-04-02 16:00:00 17 11 Sur 22 Sur 0 1007.2 -0.8 58
2020-04-02 15:00:00 17.7 13 Sudeste 25 Sur 0 1007.8 -0.4 58
2020-04-02 14:00:00 17.4 12 Sudeste 23 Sudeste 0 1007.7 -0.3 59
2020-04-02 13:00:00 18.1 13 Sudeste 22 Sudeste 0 1008 0.5 57
2020-04-02 12:00:00 17.6 8 Sudeste 18 Sudeste 0 1008.2 0.7 57
2020-04-02 11:00:00 17.2 11 Sudeste 19 Sudeste 0 1008 0.5 58
2020-04-02 10:00:00 17.4 3 Sudeste 11 Este 0 1007.5 0.3 56
2020-04-02 09:00:00 14.8 3 Nordeste 7 Noroeste 0 1007.5 0.3 68
2020-04-02 08:00:00 11.2 3 Noroeste 10 Nordeste 0 1007.5 0.2 77
2020-04-02 07:00:00 10.3 0 Calma 9 Nordeste 0 1007.2 -0.6 73
2020-04-02 06:00:00 11.7 7 Nordeste 11 Norte 0 1007.2 -1 66
2020-04-02 05:00:00 11.9 8 Norte 13 Norte 0 1007.3 -1.3 65
2020-04-02 04:00:00 12 4 Norte 20 Oeste 0 1007.8 -1 65
2020-04-02 03:00:00 13.4 9 Noroeste 17 Noroeste 0 1008.2 -0.2 58
2020-04-02 02:00:00 13.6 11 Noroeste 22 Noroeste 0 1008.6 1 61
2020-04-02 01:00:00 15.2 10 Noroeste 20 Noroeste 0 1008.8 2 53
2020-04-02 00:00:00 15.2 5 Noroeste 12 Noroeste 0 1008.4 2.5 64
2020-04-01 23:00:00 15.5 10 Noroeste 20 Noroeste 0 1007.6 2.4 61
2020-04-01 22:00:00 15.3 11 Noroeste 25 Noroeste 0 1006.8 1.5 64
2020-04-01 21:00:00 16 12 Noroeste 21 Noroeste 0 1005.9 0.5 60
2020-04-01 20:00:00 17.2 11 Norte 41 Norte 0 1005.2 -0.6 53
2020-04-01 19:00:00 18.1 10 Sudoeste 36 Sudoeste 0 1005.3 -1.1 62
2020-04-01 18:00:00 19 19 Sudoeste 39 Sudoeste 0 1005.4 -1.7 56
2020-04-01 17:00:00 20 11 Sudoeste 28 Sudoeste 0 1005.8 -1.9 51
2020-04-01 16:00:00 19.9 8 Sudoeste 22 Sudeste 0 1006.4 -1.7 60
2020-04-01 15:00:00 19.9 7 Sur 19 Sudeste 0 1007.1 -1.4 57
2020-04-01 14:00:00 19.1 10 Sudeste 18 Sudeste 0 1007.7 -1 53
2020-04-01 13:00:00 18.1 10 Sur 18 Sudeste 0 1008.1 -0.1 60
2020-04-01 12:00:00 18.3 8 Sur 13 Sur 0 1008.5 0.9 60
2020-04-01 11:00:00 16.3 5 Sudoeste 10 Sudoeste 0 1008.7 1.8 72
2020-04-01 10:00:00 15 4 Sudeste 9 Sudeste 0 1008.2 1.1 82
2020-04-01 09:00:00 13.4 4 Oeste 8 Noroeste 0.2 1007.6 0.8 84
2020-04-01 08:00:00 13.1 4 Norte 8 Norte 0 1006.9 -0.1 84
2020-04-01 07:00:00 13.9 2 Este 9 Noroeste 0 1007.1 -0.2 83
2020-04-01 06:00:00 14.4 4 Noroeste 14 Noroeste 0 1006.8 -1.1 83
2020-04-01 05:00:00 14.9 6 Oeste 13 Noroeste 0 1007 -1 83
2020-04-01 04:00:00 15.2 5 Este 14 Este 0.2 1007.3 -0.4 82
2020-04-01 03:00:00 15.2 7 Este 14 Este 0 1007.9 -0.1 82
2020-04-01 02:00:00 15.2 5 Este 8 Sudeste 0 1008 0.8 81
2020-04-01 01:00:00 15.2 5 Este 9 Este 0 1007.7 0.8 82
2020-04-01 00:00:00 15.1 3 Sudeste 6 Nordeste 0 1008 2.1 81
2020-03-31 23:00:00 15.2 3 Este 11 Sudeste 0 1007.2 1.9 80
2020-03-31 22:00:00 15.4 4 Sur 8 Sur 0 1006.9 1.9 79
2020-03-31 21:00:00 15.3 3 Sudeste 12 Sudeste 0 1005.9 0.8 77
2020-03-31 20:00:00 15.7 7 Sudeste 16 Sudeste 0 1005.3 0.4 75
2020-03-31 19:00:00 16.2 9 Sudeste 14 Sudeste 0 1005 -0.2 72
2020-03-31 18:00:00 16.4 9 Sudeste 19 Sudeste 0 1005.1 -0.2 71
2020-03-31 17:00:00 17.6 11 Sudeste 20 Sudeste 0 1004.9 -0.3 65
2020-03-31 16:00:00 17.8 9 Sur 22 Sur 0 1005.2 0.1 61
2020-03-31 15:00:00 17 9 Sudeste 21 Sudeste 0 1005.3 0.1 64
2020-03-31 14:00:00 17.5 9 Sudeste 17 Sur 0 1005.2 0 60
2020-03-31 13:00:00 17.6 9 Sur 16 Sur 0 1005.1 0.6 62
2020-03-31 12:00:00 15.9 4 Sudoeste 10 Sur 0 1005.2 0.9 70
2020-03-31 11:00:00 15 3 Oeste 11 Norte 0 1005.2 -0.2 72
2020-03-31 10:00:00 13.1 3 Noroeste 11 Nordeste 0 1004.5 -0.2 81
2020-03-31 09:00:00 12.5 8 Nordeste 22 Sudeste 0.8 1004.3 1 81
2020-03-31 08:00:00 12.5 6 Noroeste 21 Oeste 1.8 1005.4 2.3 80
2020-03-31 07:00:00 13.2 6 Oeste 18 Este 0 1004.7 0.4 72
2020-03-31 06:00:00 13.4 3 Noroeste 25 Nordeste 0 1003.3 -2 69
2020-03-31 05:00:00 13.5 12 Este 25 Este 0 1003.1 -3 70
2020-03-31 04:00:00 13.5 13 Este 21 Este 0 1004.3 -2.7 70
2020-03-31 03:00:00 13.6 11 Nordeste 27 Este 0 1005.3 -1.8 72
2020-03-31 02:00:00 13.5 13 Este 27 Este 0 1006.1 -0.8 73
2020-03-31 01:00:00 13.6 14 Este 25 Este 0 1007 0.2 74
2020-03-31 00:00:00 13.8 14 Este 34 Este 0 1007.1 0.7 73
2020-03-30 23:00:00 14.1 19 Este 34 Este 0 1006.9 0.7 73
2020-03-30 22:00:00 14.8 18 Este 37 Sudeste 0 1006.8 0.8 73
2020-03-30 21:00:00 15.3 13 Este 22 Este 0 1006.4 0.4 69
2020-03-30 20:00:00 15.8 12 Sudeste 24 Sudeste 0 1006.2 0 70
2020-03-30 19:00:00 16.4 15 Sudeste 24 Sudeste 0 1006 -0.8 68
2020-03-30 18:00:00 16.7 13 Sudeste 22 Sudeste 0 1006 -1.2 69
2020-03-30 17:00:00 17.4 10 Sur 17 Sur 0 1006.2 -1.7 66
2020-03-30 16:00:00 18.2 10 Sur 18 Sudoeste 0 1006.8 -1.6 64
2020-03-30 15:00:00 18.8 10 Sur 19 Sur 0 1007.2 -1.5 63
2020-03-30 14:00:00 18.4 9 Sur 19 Sur 0 1007.9 -1.1 56
2020-03-30 13:00:00 18 9 Sur 18 Sur 0 1008.4 -0.4 53
2020-03-30 12:00:00 17.9 7 Sudeste 12 Sudeste 0 1008.7 0.1 57
2020-03-30 11:00:00 15 4 Sudeste 8 Nordeste 0 1009 0.8 67
2020-03-30 10:00:00 13.9 4 Nordeste 8 Nordeste 0 1008.8 0.7 73
2020-03-30 09:00:00 12.7 4 Nordeste 7 Nordeste 0 1008.6 0 71
2020-03-30 08:00:00 10.6 4 Nordeste 7 Norte 0 1008.2 -1 79
2020-03-30 07:00:00 10.4 2 Este 6 Nordeste 0 1008.1 -1.8 79
2020-03-30 06:00:00 11 5 Nordeste 9 Nordeste 0 1008.6 -1.7 77
2020-03-30 05:00:00 10.7 5 Noroeste 9 Norte 0 1009.2 -1.8 78
2020-03-30 04:00:00 10.7 3 Norte 6 Norte 0 1009.9 -1.7 79
2020-03-30 03:00:00 11 2 Nordeste 7 Norte 0 1010.3 -1.7 76
2020-03-30 02:00:00 11.8 3 Este 7 Nordeste 0 1011 -1.1 73
2020-03-30 01:00:00 12.3 6 Norte 9 Nordeste 0 1011.6 -0.8 71
2020-03-30 00:00:00 13.2 6 Norte 10 Norte 0 1012 -0.3 74
2020-03-29 23:00:00 13.9 5 Este 10 Nordeste 0 1012.1 -0.3 72
2020-03-29 22:00:00 14.8 5 Nordeste 10 Nordeste 0 1012.4 -0.1 70
2020-03-29 21:00:00 15.2 2 Sur 12 Sudoeste 0 1012.3 -0.2 69
2020-03-29 20:00:00 16 4 Sudoeste 18 Sudoeste 0 1012.4 -0.4 64
2020-03-29 19:00:00 17.4 8 Sudoeste 24 Sudoeste 0 1012.5 -0.9 59
2020-03-29 18:00:00 18.2 10 Sudoeste 29 Sudoeste 0 1012.5 -1.6 60
2020-03-29 17:00:00 19 12 Sudoeste 25 Sur 0 1012.8 -1.8 51
2020-03-29 16:00:00 18.7 10 Sudoeste 22 Sur 0 1013.4 -1.4 55
2020-03-29 15:00:00 18.6 10 Sudoeste 23 Sudoeste 0 1014.1 -1.1 53
2020-03-29 14:00:00 18.2 10 Sur 18 Sur 0 1014.6 -0.7 50
2020-03-29 13:00:00 18.4 8 Sudeste 17 Este 0 1014.8 -0.2 38
2020-03-29 12:00:00 18.1 7 Sudeste 13 Sur 0 1015.2 0.3 43
2020-03-29 11:00:00 16.9 5 Sur 10 Sur 0 1015.3 0.8 53
2020-03-29 10:00:00 15.6 2 Este 8 Nordeste 0 1015 0.7 60
2020-03-29 09:00:00 10.5 0 Calma 6 Norte 0 1014.9 0.5 72
2020-03-29 08:00:00 8.3 5 Noroeste 7 Nordeste 0 1014.5 -0.2 77
2020-03-29 07:00:00 8.3 3 Nordeste 7 Nordeste 0 1014.3 -1.2 77
2020-03-29 06:00:00 8.9 3 Norte 17 Noroeste 0 1014.4 -1.8 77
2020-03-29 05:00:00 9.4 11 Noroeste 18 Noroeste 0 1014.7 -1.9 79
2020-03-29 03:00:00 10.2 7 Norte 12 Norte 0 1016.2 -0.2 77
2020-03-29 01:00:00 9.5 3 Norte 7 Norte 0 1016.6 0.3 80
2020-03-29 00:00:00 10.4 4 Nordeste 8 Nordeste 0 1016.6 0.7 76
2020-03-28 23:00:00 10.3 3 Noroeste 8 Norte 0 1016.4 1.2 78
2020-03-28 22:00:00 11.1 3 Norte 9 Nordeste 0 1016.3 1.9 75
2020-03-28 21:00:00 12 6 Nordeste 10 Norte 0 1015.9 1.9 71
2020-03-28 20:00:00 13.1 3 Este 12 Sudeste 0 1015.2 1.6 62
2020-03-28 19:00:00 14.1 6 Sudeste 18 Sudeste 0 1014.4 0.8 58
2020-03-28 18:00:00 14.9 12 Sudeste 26 Sur 0 1014 0 55
2020-03-28 17:00:00 15.9 17 Sudeste 26 Sudeste 0 1013.6 -0.8 53
2020-03-28 16:00:00 17 12 Sudeste 24 Sudeste 0 1013.6 -1.2 43
2020-03-28 15:00:00 16.4 13 Sudeste 23 Sudeste 0 1014 -0.9 40
2020-03-28 14:00:00 15.6 8 Sur 15 Sur 0 1014.4 -0.5 49
2020-03-28 13:00:00 15 9 Este 21 Sudeste 0 1014.8 0 53
2020-03-28 12:00:00 14.9 12 Este 21 Sudeste 0 1014.9 0.8 55
2020-03-28 11:00:00 13.7 4 Norte 18 Norte 0 1014.9 1 59
2020-03-28 10:00:00 11.5 11 Norte 24 Norte 0 1014.8 1.4 69
2020-03-28 09:00:00 10.4 9 Norte 21 Norte 0 1014.1 1.3 74
2020-03-28 08:00:00 9.5 8 Norte 14 Norte 0.8 1013.9 1.8 80
2020-03-28 07:00:00 9.9 6 Norte 17 Nordeste 1.6 1013.4 1.6 75
2020-03-28 06:00:00 10.2 9 Nordeste 22 Nordeste 2 1012.8 1.3 74
2020-03-28 05:00:00 10.2 12 Nordeste 24 Nordeste 2.8 1012.1 0.6 77
2020-03-28 04:00:00 10.6 4 Nordeste 17 Nordeste 2.6 1011.8 0.8 79
2020-03-28 03:00:00 11.1 9 Nordeste 26 Nordeste 0.2 1011.5 0.4 75
2020-03-28 02:00:00 11.7 11 Nordeste 22 Este 0 1011.5 0.3 72
2020-03-28 01:00:00 11.5 12 Este 25 Nordeste 0 1011 0.4 74
2020-03-28 00:00:00 11.7 7 Nordeste 18 Este 0.2 1011.1 1.1 74
2020-03-27 23:00:00 11.3 5 Norte 21 Nordeste 0.6 1011.2 2.2 75
2020-03-27 22:00:00 11.2 13 Nordeste 24 Nordeste 0.6 1010.6 2 76
2020-03-27 21:00:00 11.2 10 Nordeste 27 Este 1 1010 2 77
2020-03-27 20:00:00 11.5 14 Este 32 Este 0 1009 1.3 75
2020-03-27 19:00:00 12.4 16 Este 31 Este 0 1008.6 0.9 69
2020-03-27 18:00:00 13.3 16 Este 26 Este 0 1008 0.1 64
2020-03-27 17:00:00 13.9 17 Este 28 Este 0 1007.7 -0.8 61
2020-03-27 16:00:00 14.3 16 Este 30 Este 0 1007.7 -1.1 60
2020-03-27 15:00:00 14.8 16 Este 28 Este 0 1007.9 -1 57
2020-03-27 14:00:00 15.4 13 Este 26 Sudeste 0 1008.5 -0.5 56
2020-03-27 13:00:00 14.3 11 Este 28 Este 0 1008.8 0.1 57
2020-03-27 12:00:00 15.8 14 Este 28 Nordeste 0 1008.9 0.4 52
2020-03-27 11:00:00 15.6 13 Este 27 Sudeste 0 1009 0.9 51
2020-03-27 10:00:00 13.7 13 Este 22 Este 0 1008.7 1.1 55
2020-03-27 09:00:00 12.3 8 Este 17 Nordeste 0 1008.5 1.1 62
2020-03-27 08:00:00 11.8 8 Nordeste 16 Nordeste 0 1008.1 0.9 66
2020-03-27 07:00:00 12 8 Nordeste 16 Nordeste 0 1007.6 0.2 60
2020-03-27 06:00:00 12 8 Nordeste 17 Nordeste 0 1007.4 -0.3 60
2020-03-27 05:00:00 12.1 9 Este 20 Este 0 1007.2 -0.6 62
2020-03-27 04:00:00 12.4 12 Este 24 Este 0 1007.4 -0.3 60
2020-03-27 03:00:00 12.6 8 Este 15 Este 0 1007.7 0.3 62
2020-03-27 02:00:00 13 13 Este 21 Este 0 1007.8 0.6 61
2020-03-27 01:00:00 13 5 Este 15 Nordeste 0 1007.7 1 61
2020-03-27 00:00:00 13.2 13 Este 26 Este 0 1007.4 1.5 60
2020-03-26 23:00:00 13.7 16 Este 35 Este 0 1007.2 2.5 60
2020-03-26 22:00:00 14.3 22 Este 44 Este 0 1006.7 3.1 60
2020-03-26 21:00:00 15 15 Este 27 Este 0 1005.9 3.1 77
2020-03-26 20:00:00 15.7 14 Este 26 Este 0 1004.7 2.3 74
2020-03-26 19:00:00 16.7 9 Este 22 Este 0 1003.6 1.4 59
2020-03-26 18:00:00 17.6 13 Este 30 Este 0 1002.8 0.7 57
2020-03-26 17:00:00 18 19 Este 37 Este 0 1002.4 0.1 53
2020-03-26 16:00:00 19.5 19 Este 42 Este 0 1002.2 -0.6 60
2020-03-26 15:00:00 18.9 26 Este 44 Este 0 1002.1 -1.3 60
2020-03-26 14:00:00 20 25 Este -- -- -- 1002.3 -2.1 53
2020-03-26 13:00:00 22.9 24 Oeste 41 Oeste 0 1002.8 -2.1 34
2020-03-26 12:00:00 20.4 22 Oeste 36 Oeste 0 1003.4 -1.7 43
2020-03-26 11:00:00 18.5 7 Sudeste 15 Sudeste 0 1004.4 -1.1 53
2020-03-26 10:00:00 16.7 6 Sur 11 Sur 0 1004.9 -1 55
2020-03-26 09:00:00 13.6 5 Sur 10 Sudoeste 0 1005.1 -1.2 66
2020-03-26 08:00:00 10.3 5 Oeste 8 Oeste 0 1005.5 -- 78
2020-03-26 07:00:00 8.6 5 Oeste 9 Oeste 0 1005.9 -1.7 77
2020-03-26 06:00:00 9.9 6 Norte 13 Noroeste 0 1006.3 -2.8 74
2020-03-26 05:00:00 -- -- -- -- -- -- -- -- --
2020-03-26 04:00:00 10.5 6 Noroeste 12 Noroeste 0 1007.6 -2.8 72
2020-03-26 03:00:00 10.3 3 Noroeste 9 Nordeste 0 1009.1 -1.9 75
2020-03-26 02:00:00 9.9 2 Nordeste 9 Noroeste 0 1009.5 -2.4 73
2020-03-26 01:00:00 10.7 4 Noroeste 8 Norte 0 1010.4 -2.2 69
2020-03-26 00:00:00 11.2 4 Noroeste 14 Sudoeste 0 1011 -1.7 69
2020-03-25 23:00:00 12.8 5 Sudoeste 21 Sudoeste 0 1011.9 -0.5 60
2020-03-25 22:00:00 12.2 6 Oeste 20 Sudoeste 0 1012.6 0.2 67
2020-03-25 21:00:00 12.6 3 Norte 12 Sudoeste 0 1012.7 0.1 71
2020-03-25 20:00:00 12.7 6 Este 15 Sur 0.2 1012.4 0 71
2020-03-25 19:00:00 13.4 7 Sur 16 Sudeste 0 1012.4 0.2 62
2020-03-25 18:00:00 13.7 8 Sur 19 Sur 0 1012.6 0.6 61
2020-03-25 17:00:00 14.2 10 Sur 21 Sudeste 0 1012.4 -0.1 57
2020-03-25 16:00:00 15.4 13 Sudeste 31 Este 0 1012.2 -0.6 51
2020-03-25 15:00:00 16.8 12 Sudeste 26 Sudeste 0 1012 -1 45
2020-03-25 14:00:00 16 10 Sudeste 22 Sur 0 1012.5 -0.2 48
2020-03-25 13:00:00 16.7 13 Sudeste 22 Sudeste 0 1012.8 0 45
2020-03-25 12:00:00 15.3 9 Sudeste 27 Este 0 1013 0.4 42
2020-03-25 11:00:00 17 13 Este 28 Este 0 1012.7 -0.1 40
2020-03-25 10:00:00 15.3 11 Nordeste 20 Nordeste 0 1012.8 0.5 41
2020-03-25 09:00:00 14.4 5 Nordeste 13 Norte 0 1012.6 0.4 48
2020-03-25 08:00:00 10.7 3 Nordeste 9 Nordeste 0 1012.8 0.7 62
2020-03-25 07:00:00 10.6 5 Nordeste 16 Nordeste 0 1012.3 0.3 61
2020-03-25 06:00:00 11.3 6 Nordeste 30 Nordeste 0 1012.2 0.2 56
2020-03-25 05:00:00 11.9 14 Nordeste 34 Nordeste 0 1012.1 0.1 56
2020-03-25 04:00:00 12.4 11 Nordeste 28 Nordeste 0 1012 0.1 57
2020-03-25 03:00:00 12.2 8 Nordeste 26 Norte 0 1012 0.3 63
2020-03-25 02:00:00 12.5 13 Nordeste 32 Nordeste 0 1012 0.7 66
2020-03-25 01:00:00 12.5 15 Nordeste 35 Este 0 1011.9 1.2 69
2020-03-25 00:00:00 12.9 22 Nordeste 43 Nordeste 0 1011.7 1.7 66
2020-03-24 23:00:00 12.6 24 Nordeste 49 Este 0 1011.3 1.7 72
2020-03-24 22:00:00 13.3 23 Nordeste 50 Nordeste 0 1010.7 1.5 72
2020-03-24 21:00:00 13.3 22 Nordeste 48 Este 0.6 1010 1.3 76
2020-03-24 20:00:00 13.1 18 Este 41 Nordeste 1.8 1009.6 1.4 79
2020-03-24 19:00:00 13.1 15 Nordeste 37 Este 2 1009.2 1.3 79
2020-03-24 18:00:00 13.2 19 Este 55 Este 0.8 1008.7 0.9 76
2020-03-24 17:00:00 13.2 24 Este 53 Nordeste 0.6 1008.2 -0.1 78
2020-03-24 16:00:00 13.3 29 Este 64 Nordeste 0.6 1007.9 -0.4 77
2020-03-24 15:00:00 13.8 29 Este 56 Este 0.2 1007.8 -1 77
2020-03-24 14:00:00 13.7 25 Este 51 Nordeste 1 1008.3 -0.1 80
2020-03-24 13:00:00 13.7 26 Este 58 Este 1.4 1008.3 0.5 80
2020-03-24 12:00:00 13.7 23 Este 53 Nordeste 0.8 1008.8 1.5 78
2020-03-24 11:00:00 13.3 27 Nordeste 58 Nordeste 1.4 1008.4 1.3 77
2020-03-24 10:00:00 13.6 28 Nordeste 62 Nordeste 0.8 1007.8 0.4 74
2020-03-24 09:00:00 14 29 Nordeste 69 Nordeste 1 1007.3 0.3 67
2020-03-24 08:00:00 12.9 29 Nordeste 60 Nordeste 2.4 1007.1 0.1 75
2020-03-24 07:00:00 13.2 18 Nordeste 53 Este 0 1007.4 0.9 73
2020-03-24 06:00:00 13.3 30 Este 58 Este 1 1007 0.6 75
2020-03-24 05:00:00 13.5 29 Este 74 Nordeste 0.2 1007 0.1 75
2020-03-24 04:00:00 13.8 33 Este 72 Este 0 1006.5 -0.8 69
2020-03-24 03:00:00 14 30 Nordeste 66 Nordeste 0 1006.4 -2.3 62
2020-03-24 02:00:00 13.8 35 Este 72 Este 0 1006.9 -2.7 64
2020-03-24 01:00:00 13.9 37 Este 77 Nordeste 0 1007.3 -2.3 68
2020-03-24 00:00:00 14 25 Este 49 Este 0.2 1008.7 -0.9 74
2020-03-23 23:00:00 13.5 22 Este 45 Nordeste 1.4 1009.6 0.8 79
2020-03-23 22:00:00 14 22 Este 44 Este 0.4 1009.6 0.5 78
2020-03-23 21:00:00 14.4 16 Este 35 Este 0.2 1009.6 1 72
2020-03-23 20:00:00 14.4 13 Este 30 Este 0.4 1008.8 0.1 76
2020-03-23 19:00:00 14.7 13 Este 28 Este 0 1009.1 0.3 74
2020-03-23 18:00:00 14.5 12 Este 26 Nordeste 0.2 1008.6 -0.3 76
2020-03-23 17:00:00 14.2 14 Nordeste 41 Este 0.2 1008.7 -0.9 80
2020-03-23 16:00:00 14.3 20 Este 37 Este 0.8 1008.8 -1.4 78
2020-03-23 15:00:00 16.5 18 Este 34 Este 0.2 1008.9 -1.6 66
2020-03-23 14:00:00 16.8 17 Este 34 Este 0 1009.6 -1 58
2020-03-23 13:00:00 17.4 10 Este 21 Este 0 1010.2 -0.8 55
2020-03-23 12:00:00 17.3 9 Sudeste 18 Sudeste 0 1010.5 -0.2 55
2020-03-23 11:00:00 15.8 5 Norte 14 Norte 0 1010.6 0 60
2020-03-23 10:00:00 13.6 2 Sur 8 Sudeste 0 1011 0.8 74
2020-03-23 09:00:00 12 4 Nordeste 7 Norte 0 1010.7 0.9 79
2020-03-23 08:00:00 10.2 4 Nordeste 9 Noroeste 0 1010.6 1.2 81
2020-03-23 07:00:00 9 0 Calma 10 Nordeste 0 1010.2 0.8 82
2020-03-23 06:00:00 8.8 3 Nordeste 10 Nordeste 0 1009.8 0 83
2020-03-23 05:00:00 9.2 4 Este 11 Norte 0 1009.4 -0.9 81
2020-03-23 04:00:00 8.9 7 Norte 10 Norte 0 1009.4 -1.1 83
2020-03-23 03:00:00 9.7 6 Norte 8 Norte 0 1009.8 -0.6 82
2020-03-23 02:00:00 10.1 3 Norte 9 Noroeste 0 1010.3 -0.4 83
2020-03-23 01:00:00 10 2 Nordeste 9 Norte 0 1010.5 0.1 84
2020-03-23 00:00:00 10.7 5 Norte 12 Norte 0 1010.4 0.7 82
2020-03-22 23:00:00 10.8 6 Nordeste 10 Nordeste 0 1010.7 1.7 84
2020-03-22 22:00:00 11.1 5 Norte 7 Nordeste 0 1010.4 1.9 84
2020-03-22 21:00:00 11.8 2 Nordeste 6 Este 0 1009.7 1.8 82
2020-03-22 20:00:00 12.3 2 Este 8 Este 0 1009 1.2 80
2020-03-22 19:00:00 12.8 5 Sudeste 7 Sudeste 0 1008.5 0.8 77
2020-03-22 18:00:00 13.5 3 Sudeste 9 Sudoeste 0 1007.9 0.2 74
2020-03-22 17:00:00 14.2 4 Sur 13 Sudoeste 0 1007.8 -0.8 75
2020-03-22 16:00:00 13.5 4 Sur 14 Este 0.2 1007.7 -1.2 81
2020-03-22 15:00:00 12.5 8 Sudeste 14 Este 1 1007.7 -1.1 82
2020-03-22 14:00:00 12.7 4 Noroeste 10 Noroeste 1.4 1008.6 -0.1 78
2020-03-22 13:00:00 13.2 3 Oeste 9 Sudeste 1 1008.9 0.5 78
2020-03-22 12:00:00 13 0 Calma 10 Este 1.2 1008.8 0.6 79
2020-03-22 11:00:00 12.9 7 Sudeste 11 Sudeste 0 1008.7 1.2 85
2020-03-22 10:00:00 12.3 7 Este 10 Este 1 1008.4 1.1 86
2020-03-22 09:00:00 12.3 3 Oeste 6 Oeste 0.6 1008.2 1.5 85
2020-03-22 08:00:00 11.8 3 Nordeste 8 Norte 0.4 1007.5 0.4 84
2020-03-22 07:00:00 11.2 6 Norte 8 Norte 0 1007.3 0.3 83
2020-03-22 06:00:00 11.1 6 Nordeste 12 Nordeste 0 1006.7 -0.9 81
2020-03-22 05:00:00 10.5 8 Nordeste 10 Nordeste 0 1007.1 -1.1 84
2020-03-22 04:00:00 10.5 6 Nordeste 9 Nordeste 0 1007 -1.5 83
2020-03-22 03:00:00 10.7 6 Nordeste 12 Norte 0 1007.6 -1.2 82
2020-03-22 02:00:00 11.2 5 Noroeste 9 Noroeste 0 1008.2 -0.6 80
2020-03-22 01:00:00 11.5 3 Oeste 13 Norte 0 1008.5 -0.4 82
2020-03-22 00:00:00 11.2 4 Noroeste 9 Norte 0 1008.8 0.3 84
2020-03-21 23:00:00 11.5 3 Nordeste 11 Nordeste 0 1008.8 0.2 84
2020-03-21 22:00:00 11.9 0 Calma 6 Sudoeste 0 1008.9 0.5 83
2020-03-21 21:00:00 12.8 4 Norte 10 Nordeste 0 1008.5 0.9 81
2020-03-21 20:00:00 13 4 Norte 10 Sur 0 1008.6 1.1 80
2020-03-21 19:00:00 13.5 4 Sudeste 15 Sur 0 1008.4 0.5 78
2020-03-21 18:00:00 14.8 8 Sudeste 18 Nordeste 0 1007.6 -0.3 71
2020-03-21 17:00:00 15 12 Nordeste 22 Nordeste 0 1007.5 -0.9 64
2020-03-21 16:00:00 13.4 8 Noroeste 25 Norte 0 1007.9 -1 70
2020-03-21 15:00:00 13.8 7 Noroeste 28 Nordeste 0.2 1007.9 -1.1 75
2020-03-21 14:00:00 12.9 13 Nordeste 36 Norte 2.8 1008.4 -1 78
2020-03-21 13:00:00 12.8 10 Noroeste 42 Oeste 10.8 1008.9 -0.6 83
2020-03-21 12:00:00 16.4 21 Este 38 Este 0 1009 -0.7 65
2020-03-21 11:00:00 16.1 18 Este 26 Este 0 1009.4 0.1 61
2020-03-21 10:00:00 15.7 13 Este 22 Este 0 1009.5 0 58
2020-03-21 09:00:00 15.4 8 Este 21 Este 0 1009.7 -0.2 56
2020-03-21 08:00:00 15.2 10 Este 21 Este 0 1009.3 -0.5 56
2020-03-21 07:00:00 14.7 3 Nordeste 8 Nordeste 0 1009.5 -0.5 58
2020-03-21 06:00:00 14.8 4 Oeste 9 Este 0 1009.9 -0.8 57
2020-03-21 05:00:00 14.9 5 Este 15 Nordeste 0 1009.8 -1.6 57
2020-03-21 04:00:00 15 8 Este 21 Nordeste 0 1010 -1.9 56
2020-03-21 03:00:00 14.9 9 Nordeste 17 Nordeste 0 1010.7 -2 57
2020-03-21 02:00:00 14 6 Este 18 Nordeste 0 1011.4 -1.5 62
2020-03-21 01:00:00 14.5 6 Nordeste 21 Nordeste 0 1011.9 -1.2 62
2020-03-21 00:00:00 15 11 Este 25 Este 0 1012.7 -0.1 63
2020-03-20 23:00:00 14.9 11 Este 19 Este 0 1012.9 0.6 67
2020-03-20 22:00:00 14.5 8 Nordeste 23 Este 0 1013.1 1.6 73
2020-03-20 21:00:00 15.3 12 Este 26 Este 0 1012.8 2.2 66
2020-03-20 20:00:00 15.3 12 Este 31 Este 0 1012.3 1.3 63
2020-03-20 19:00:00 15.8 19 Este 31 Sudeste 0 1011.5 0.5 59
2020-03-20 18:00:00 17.3 19 Este 34 Este 0 1010.6 -1 47
2020-03-20 17:00:00 17.7 18 Este 35 Nordeste 0 1011 -1.3 44
2020-03-20 16:00:00 17.6 17 Nordeste 39 Nordeste 0 1011 -2.5 47
2020-03-20 15:00:00 17.6 16 Nordeste 33 Este 0 1011.6 -2.9 48
2020-03-20 14:00:00 17.4 15 Este 36 Nordeste 0 1012.3 -2.1 52
2020-03-20 13:00:00 16 17 Nordeste 33 Nordeste 0 1013.5 0 56
2020-03-20 12:00:00 15.2 12 Nordeste 33 Nordeste 0 1014.5 0.8 59
2020-03-20 11:00:00 15.3 12 Este 43 Nordeste 0 1014.4 0.9 60
2020-03-20 10:00:00 15.4 23 Nordeste 38 Nordeste 0 1013.5 0.6 57
2020-03-20 09:00:00 14.8 14 Nordeste 30 Nordeste 0 1013.7 0.7 59
2020-03-20 08:00:00 14.4 11 Nordeste 26 Nordeste 0 1013.5 0.7 61
2020-03-20 07:00:00 13.9 11 Nordeste 23 Nordeste 0 1012.9 -0.1 62
2020-03-20 06:00:00 14 12 Nordeste 27 Nordeste 0 1013 -0.6 60
2020-03-20 05:00:00 14 9 Nordeste 22 Nordeste 0 1012.8 -1.4 60
2020-03-20 04:00:00 14.1 9 Nordeste 22 Nordeste 0 1013 -1.9 58
2020-03-20 03:00:00 14 6 Nordeste 23 Nordeste 0 1013.6 -1.7 61
2020-03-20 02:00:00 14.1 10 Nordeste 20 Este 0 1014.2 -1 61
2020-03-20 01:00:00 14.3 8 Nordeste 22 Nordeste 0 1014.9 -0.8 62
2020-03-20 00:00:00 14.4 8 Nordeste 23 Nordeste 0 1015.3 -0.3 62
2020-03-19 23:00:00 14.6 9 Nordeste 24 Este 0 1015.2 0.1 60
2020-03-19 22:00:00 14.8 6 Nordeste 22 Este 0 1015.7 0.9 58
2020-03-19 21:00:00 15.2 9 Nordeste 28 Este 0 1015.6 1.2 57
2020-03-19 20:00:00 15.7 9 Nordeste 26 Nordeste 0 1015.1 0.4 55
2020-03-19 19:00:00 16.4 12 Este 36 Este 0 1014.8 -0.3 53
2020-03-19 18:00:00 17.6 21 Este 41 Este 0 1014.4 -1.2 47
2020-03-19 17:00:00 18.3 21 Este 42 Este 0 1014.7 -1.8 49
2020-03-19 16:00:00 18.5 25 Este 49 Este 0 1015.1 -2.1 47
2020-03-19 15:00:00 19 21 Este 39 Sudeste 0 1015.6 -2 48
2020-03-19 14:00:00 17.7 21 Este 37 Sudeste 0 1016.5 -1.5 52
2020-03-19 13:00:00 17.3 18 Nordeste 34 Nordeste 0 1017.2 -0.8 52
2020-03-19 12:00:00 17.1 16 Este 32 Nordeste 0 1017.6 0 54
2020-03-19 11:00:00 16.6 12 Nordeste 35 Este 0 1018 0.6 55
2020-03-19 10:00:00 16 17 Nordeste 34 Nordeste 0 1018 0.6 56
2020-03-19 09:00:00 15.7 18 Nordeste 35 Nordeste 0 1017.6 0.2 57
2020-03-19 08:00:00 15.1 14 Nordeste 33 Nordeste 0 1017.4 -0.1 60
2020-03-19 07:00:00 15 14 Nordeste 30 Nordeste 0 1017.4 -0.4 61
2020-03-19 06:00:00 15.2 13 Nordeste 30 Nordeste 0 1017.4 -0.9 60
2020-03-19 05:00:00 15.2 10 Nordeste 28 Nordeste 0 1017.5 -1.4 60
2020-03-19 04:00:00 15.4 12 Nordeste 28 Nordeste 0 1017.8 -1.3 59
2020-03-19 03:00:00 15.5 14 Nordeste 32 Este 0 1018.3 -1.2 59
2020-03-19 02:00:00 15.6 12 Nordeste 28 Este 0 1018.9 -0.9 59
2020-03-19 01:00:00 15.9 10 Nordeste 34 Nordeste 0 1019.1 -0.8 58
2020-03-19 00:00:00 16 17 Nordeste 34 Nordeste 0 1019.5 0 58
2020-03-18 23:00:00 16 15 Nordeste 31 Nordeste 0 1019.8 0.5 58
2020-03-18 22:00:00 15.6 7 Nordeste 28 Nordeste 0 1019.9 1 60
2020-03-18 21:00:00 15.9 15 Nordeste 37 Este 0 1019.5 1.1 60
2020-03-18 20:00:00 16.4 19 Este 35 Este 0 1019.3 1 59
2020-03-18 19:00:00 16.8 14 Este 36 Este 0 1018.9 0.5 61
2020-03-18 18:00:00 17.8 18 Este 40 Este 0 1018.4 -0.6 57
2020-03-18 17:00:00 18.9 26 Este 50 Sudeste 0 1018.3 -1.3 52
2020-03-18 16:00:00 19.9 23 Este 44 Este 0 1018.4 -1.9 48
2020-03-18 15:00:00 20.2 24 Este 44 Sudeste 0 1019 -1.9 47
2020-03-18 14:00:00 20.4 25 Este 48 Este 0 1019.6 -1.6 46
2020-03-18 13:00:00 18.9 27 Este 49 Este 0 1020.3 -1 48
2020-03-18 12:00:00 18.6 27 Este 47 Este 0 1020.9 -0.1 51
2020-03-18 11:00:00 19.2 28 Este 55 Este 0 1021.2 0.5 46
2020-03-18 10:00:00 17.2 23 Este 44 Este 0 1021.3 0.6 56
2020-03-18 09:00:00 16.6 19 Nordeste 37 Este 0 1021 0.7 55
2020-03-18 08:00:00 16.2 17 Este 39 Nordeste 0 1020.7 0.5 56
2020-03-18 07:00:00 15.9 15 Nordeste 39 Este 0 1020.7 0.6 60
2020-03-18 06:00:00 15.9 20 Este 40 Nordeste 0 1020.3 0.1 60
2020-03-18 05:00:00 15.9 21 Este 43 Este 0 1020.2 -0.4 59
2020-03-18 04:00:00 15.9 16 Este 41 Nordeste 0 1020.1 -0.3 61
2020-03-18 03:00:00 16 20 Este 50 Este 0 1020.2 -0.2 62
2020-03-18 02:00:00 16.1 20 Este 38 Este 0 1020.6 0.7 63
2020-03-18 01:00:00 16.1 18 Este 45 Este 0 1020.4 0.9 64
2020-03-18 00:00:00 16.1 25 Este 50 Este 0 1020.4 1.6 64
2020-03-17 23:00:00 16.3 27 Este 57 Este 0 1019.9 1.5 65
2020-03-17 22:00:00 16.5 26 Este 53 Nordeste 0 1019.5 1.5 69
2020-03-17 21:00:00 16.7 23 Este 46 Este 0 1018.8 1.3 68
2020-03-17 20:00:00 16.7 23 Este 44 Este 0 1018.4 1 69
2020-03-17 19:00:00 16 14 Este 38 Este 0 1018 0.6 74
2020-03-17 18:00:00 17.5 21 Este 35 Este 0 1017.5 -0.1 61
2020-03-17 17:00:00 18.1 18 Este 38 Este 0 1017.4 -0.5 54
2020-03-17 16:00:00 18.7 17 Este 32 Este 0 1017.4 -1.1 48
2020-03-17 15:00:00 18 9 Este 32 Este 0 1017.6 -1.1 45
2020-03-17 14:00:00 18.1 12 Este 24 Este 0 1017.9 -1.3 41
2020-03-17 13:00:00 18.5 12 Sudeste 22 Sur 0 1018.5 -0.5 45
2020-03-17 12:00:00 16.7 13 Este 24 Este 0 1018.7 0.7 51
2020-03-17 11:00:00 15.6 18 Este 31 Este 0 1019.2 1.9 58
2020-03-17 10:00:00 14.3 18 Este 32 Este 0 1019 2.6 66
2020-03-17 09:00:00 15.8 10 Este 21 Este 0 1018 2.3 56
2020-03-17 08:00:00 13.4 6 Este 10 Nordeste 0 1017.3 2.2 60
2020-03-17 07:00:00 11.8 3 Norte 8 Norte 0 1016.4 1.7 67
2020-03-17 06:00:00 11.4 4 Noroeste 8 Norte 0 1015.7 1.3 68
2020-03-17 05:00:00 11.3 3 Noroeste 8 Norte 0 1015.1 1.1 66
2020-03-17 04:00:00 11.3 5 Noroeste 13 Noroeste 0 1014.7 0.8 63
2020-03-17 03:00:00 12.3 6 Noroeste 20 Este 0 1014.4 0.7 58
2020-03-17 02:00:00 13.4 16 Este 30 Este 0 1014 0.6 55
2020-03-17 01:00:00 12.4 3 Sudeste 14 Nordeste 0 1013.9 1.3 53
2020-03-17 00:00:00 12.3 4 Nordeste 12 Nordeste 0 1013.7 2.1 51
2020-03-16 23:00:00 11.9 5 Norte 9 Norte 0 1013.4 2.8 57
2020-03-16 22:00:00 12.2 4 Norte 13 Este 0 1012.6 3.2 57
2020-03-16 21:00:00 13.6 11 Nordeste 27 Nordeste 0 1011.6 3.1 49
2020-03-16 20:00:00 13.4 13 Este 24 Este 0 1010.6 2.7 52
2020-03-16 19:00:00 15.1 14 Este 27 Este 0 1009.4 2 49
2020-03-16 18:00:00 16.1 13 Este 24 Este 0 1008.5 1.3 49
2020-03-16 17:00:00 16.5 11 Este 24 Sudeste 0 1007.9 0.9 55
2020-03-16 16:00:00 17.2 14 Sudeste 27 Sudeste 0 1007.4 -0.1 49
2020-03-16 15:00:00 18.5 11 Sur 17 Sur 0 1007.2 -0.6 38
2020-03-16 14:00:00 18.9 4 Oeste 24 Noroeste 0 1007 -0.8 38
2020-03-16 13:00:00 18.1 10 Noroeste 37 Noroeste 0 1007.5 -0.3 43
2020-03-16 12:00:00 19.2 22 Noroeste 36 Noroeste 0 1007.8 0.1 40
2020-03-16 11:00:00 17.6 8 Sudoeste 28 Sudoeste 0 1007.8 0.2 67
2020-03-16 10:00:00 16.6 12 Sudoeste 26 Sur 0 1007.8 0.3 69
2020-03-16 09:00:00 16.1 10 Sudoeste 25 Sur 0 1007.7 0.2 70
2020-03-16 08:00:00 15.3 8 Sur 19 Sur 0 1007.6 0.3 76
2020-03-16 07:00:00 14.9 6 Sur 14 Sudeste 0 1007.5 0 81
2020-03-16 06:00:00 13.3 3 Este 5 Nordeste 0 1007.5 -1.1 81
2020-03-16 05:00:00 14 2 Sudoeste 5 Noroeste 0 1007.3 -2.2 79
2020-03-16 04:00:00 14.6 4 Noroeste 6 Noroeste 0 1007.5 -2.8 77
2020-03-16 03:00:00 15.1 3 Norte 9 Norte 0 1008.6 -2.7 77
2020-03-16 02:00:00 15.1 5 Norte 12 Oeste 0 1009.5 -2.3 78
2020-03-16 01:00:00 15.6 3 Sudeste 14 Sudoeste 0 1010.3 -0.8 74
2020-03-16 00:00:00 15.9 6 Sur 13 Sudeste 0 1011.3 0.9 73
2020-03-15 23:00:00 15.8 7 Sudeste 16 Sudeste 0 1011.8 1.4 72
2020-03-15 22:00:00 15.4 5 Sudeste 19 Sudeste 0 1011.1 0 73
2020-03-15 21:00:00 15.7 9 Sudeste 24 Nordeste 0 1010.4 -0.8 71
2020-03-15 20:00:00 15.5 8 Este 12 Nordeste 0 1010.4 -1.7 70
2020-03-15 19:00:00 16 4 Sur 12 Sudoeste 0 1011.1 -1.3 67
2020-03-15 18:00:00 16.6 3 Sudeste 14 Sur 0 1011.2 -1.3 65
2020-03-15 17:00:00 17.1 10 Sudoeste 19 Sudoeste 0 1012.1 -0.8 63
2020-03-15 16:00:00 18 8 Sur 21 Sur 0 1012.4 -1.2 59
2020-03-15 15:00:00 18.5 11 Sur 21 Sudeste 0 1012.5 -2.1 57
2020-03-15 14:00:00 18.8 12 Sur 28 Sur 0 1012.9 -2.4 57
2020-03-15 13:00:00 18.6 13 Sudeste 25 Sudeste 0 1013.6 -1.7 52
2020-03-15 12:00:00 18.9 15 Sudeste 25 Sudeste 0 1014.6 -0.7 51
2020-03-15 11:00:00 17.9 13 Sudeste 21 Sudeste 0 1015.3 0.3 55
2020-03-15 10:00:00 17.6 5 Sudeste 10 Sudeste 0 1015.3 0.6 56
2020-03-15 09:00:00 15.6 2 Norte 5 Norte 0 1015.3 1 68
2020-03-15 08:00:00 12.3 2 Norte 8 Nordeste 0 1015 0.5 78
2020-03-15 07:00:00 11.9 3 Nordeste 9 Norte 0 1014.7 -0.1 78
2020-03-15 06:00:00 11.9 3 Nordeste 10 Noroeste 0 1014.3 -1.1 79
2020-03-15 05:00:00 12.2 4 Noroeste 8 Norte 0 1014.5 -1.3 79
2020-03-15 04:00:00 13.1 3 Norte 8 Nordeste 0 1014.8 -1.5 76
2020-03-15 03:00:00 13.8 3 Norte 10 Nordeste 0 1015.4 -1 76
2020-03-15 02:00:00 14.8 4 Nordeste 10 Nordeste 0 1015.8 -0.8 78
2020-03-15 01:00:00 14.7 4 Nordeste 8 Este 0 1016.3 -0.2 78
2020-03-15 00:00:00 15.1 5 Este 12 Sudeste 0 1016.4 0.2 73
2020-03-14 23:00:00 16.1 6 Este 16 Este 0 1016.6 0.8 70
2020-03-14 22:00:00 16.3 9 Sudeste 14 Sudeste 0 1016.5 0.9 71
2020-03-14 21:00:00 16.2 6 Este 15 Sudeste 0 1016.2 1.1 71
2020-03-14 20:00:00 16.1 8 Sudeste 17 Sudeste 0 1015.8 0.7 73
2020-03-14 19:00:00 16.4 11 Sudeste 21 Sudeste 0 1015.6 0.2 72
2020-03-14 18:00:00 16.9 12 Sudeste 20 Sudeste 0 1015.1 -0.9 70
2020-03-14 17:00:00 18 12 Sudeste 21 Sudeste 0 1015.1 -1.5 66
2020-03-14 16:00:00 18.5 12 Sur 21 Sur 0 1015.4 -1.7 64
2020-03-14 15:00:00 19.2 10 Sur 21 Sur 0 1016 -1.3 64
2020-03-14 14:00:00 19.1 10 Sur 21 Sudeste 0 1016.6 -0.9 60
2020-03-14 13:00:00 18.9 12 Sudeste 24 Sudeste 0 1017.1 -0.2 58
2020-03-14 12:00:00 18.6 14 Sudeste 21 Sudeste 0 1017.3 0.5 58
2020-03-14 11:00:00 19.4 10 Sudeste 20 Sudeste 0 1017.5 1.2 52
2020-03-14 10:00:00 18.8 9 Sudeste 15 Sudeste 0 1017.3 1.5 56
2020-03-14 09:00:00 17 6 Este 12 Sudeste 0 1016.8 1.3 64
2020-03-14 08:00:00 13 0 Calma 10 Nordeste 0 1016.3 1.3 72
2020-03-14 07:00:00 13 4 Nordeste 8 Nordeste 0 1015.8 0.8 71
2020-03-14 06:00:00 13.5 3 Nordeste 6 Este 0 1015.5 -0.1 69
2020-03-14 05:00:00 13.9 2 Norte 9 Norte 0 1015 -0.9 67
2020-03-14 04:00:00 14 3 Norte 6 Norte 0 1015 -1 68
2020-03-14 03:00:00 14.4 0 Calma 8 Noroeste 0 1015.6 -0.5 65
2020-03-14 02:00:00 15 3 Noroeste 5 Noroeste 0 1015.9 0.1 68
2020-03-14 01:00:00 15.3 0 Calma 8 Nordeste 0 1016 0.5 69
2020-03-14 00:00:00 15.5 3 Este 6 Este 0 1016.1 0.8 72
2020-03-13 23:00:00 15.8 2 Oeste 9 Oeste 0 1015.8 1.3 72
2020-03-13 22:00:00 16 4 Noroeste 7 Noroeste 0 1015.5 1.5 70
2020-03-13 21:00:00 16.2 3 Este 9 Este 0 1015.3 1.8 67
2020-03-13 20:00:00 16.5 4 Sudeste 12 Sudeste 0 1014.5 0.7 68
2020-03-13 19:00:00 17.1 9 Sudeste 18 Este 0 1014 -0.1 65
2020-03-13 18:00:00 18.8 13 Este 22 Este 0 1013.5 -0.7 54
2020-03-13 17:00:00 19.1 10 Sudeste 24 Sudeste 0 1013.8 -0.8 55
2020-03-13 16:00:00 18.9 12 Sudeste 24 Este 0 1014.1 -0.9 56
2020-03-13 15:00:00 20.5 10 Sur 23 Sudeste 0 1014.2 -1.1 55
2020-03-13 14:00:00 20 13 Sudeste 27 Sudeste 0 1014.6 -0.5 58
2020-03-13 13:00:00 20.1 13 Sudeste 23 Sudeste 0 1015 0.2 56
2020-03-13 12:00:00 21.1 14 Sudeste 28 Sudeste 0 1015.3 1.1 49
2020-03-13 11:00:00 20.4 16 Sudeste 24 Sudeste 0 1015.1 2 51
2020-03-13 10:00:00 20.3 9 Sudeste 19 Sudeste 0 1014.8 2.2 47
2020-03-13 09:00:00 17.8 9 Sudeste 16 Sudeste 0 1014.2 2 63
2020-03-13 08:00:00 15.5 3 Este 6 Nordeste 0 1013.1 1.2 51
2020-03-13 07:00:00 13.9 0 Calma 7 Nordeste 0 1012.6 0.7 57
2020-03-13 06:00:00 15.5 7 Nordeste 10 Nordeste 0 1012.2 -0.3 50
2020-03-13 05:00:00 15.4 5 Nordeste 8 Norte 0 1011.9 -0.9 50
2020-03-13 04:00:00 13.9 0 Calma 8 Norte 0 1011.9 -1.6 57
2020-03-13 03:00:00 14.2 3 Norte 7 Nordeste 0 1012.5 -1.3 58
2020-03-13 02:00:00 14.3 4 Nordeste 9 Norte 0 1012.8 -0.9 58
2020-03-13 01:00:00 14.8 3 Noroeste 8 Norte 0 1013.5 -0.1 58
2020-03-13 00:00:00 15.1 0 Calma 8 Norte 0 1013.8 0.4 57
2020-03-12 23:00:00 15.6 5 Norte 8 Norte 0 1013.7 0.7 58
2020-03-12 22:00:00 16.4 0 Calma 5 Nordeste 0 1013.6 0.5 60
2020-03-12 21:00:00 17.2 4 Noroeste 5 Noroeste 0 1013.4 0.3 60
2020-03-12 20:00:00 18.3 2 Oeste 4 Sur 0 1013 -0.3 55
2020-03-12 19:00:00 19.5 3 Sudeste 9 Sudeste 0 1013.1 -0.4 50
2020-03-12 18:00:00 21.3 4 Sudeste 8 Sur 0 1013.1 -1 48
2020-03-12 17:00:00 21 4 Sur 14 Sudeste 0 1013.3 -1.9 50
2020-03-12 16:00:00 22.3 6 Sur 21 Sudeste 0 1013.5 -2.9 49
2020-03-12 15:00:00 24.8 10 Sudeste 20 Sudeste 0 1014.1 -2.6 26
2020-03-12 14:00:00 24.4 7 Sur 15 Sudeste 0 1015.2 -1.8 29
2020-03-12 13:00:00 24.2 9 Sur 14 Sudeste 0 1016.4 -0.8 27
2020-03-12 12:00:00 24.8 4 Sudeste 10 Sur 0 1016.7 -0.3 27
2020-03-12 11:00:00 23.8 3 Oeste 8 Sudoeste 0 1017 0.3 30
2020-03-12 10:00:00 21.9 2 Sudoeste 8 Sur 0 1017.2 0.6 34
2020-03-12 09:00:00 18.5 0 Calma 5 Nordeste 0 1017 0.4 44
2020-03-12 08:00:00 12.8 2 Este 6 Nordeste 0 1016.7 -0.1 58
2020-03-12 07:00:00 12.7 2 Este 8 Nordeste 0 1016.6 -0.5 57
2020-03-12 06:00:00 12.6 2 Nordeste 8 Nordeste 0 1016.6 -1.1 60
2020-03-12 05:00:00 12.3 0 Calma 4 Nordeste 0 1016.8 -1.5 62
2020-03-12 04:00:00 13.4 0 Calma 7 Nordeste 0 1017.1 -1.6 59
2020-03-12 03:00:00 13.8 0 Calma 10 Nordeste 0 1017.7 -1.2 58
2020-03-12 02:00:00 12.8 0 Calma 4 Nordeste 0 1018.3 -0.4 66
2020-03-12 01:00:00 14.2 4 Nordeste 10 Norte 0 1018.7 0.3 68
2020-03-12 00:00:00 14.3 6 Norte 8 Norte 0 1018.9 0.5 64
2020-03-11 23:00:00 14.7 3 Sudeste 5 Sudeste 0 1018.7 0.6 68
2020-03-11 22:00:00 15.2 3 Noroeste 7 Noroeste 0 1018.4 0.4 69
2020-03-11 21:00:00 15.8 5 Noroeste 8 Noroeste 0 1018.4 0.3 65
2020-03-11 20:00:00 17.4 2 Sudeste 8 Sudeste 0 1018.1 -0.1 60
2020-03-11 19:00:00 19.2 2 Sudoeste 6 Este 0 1018 -0.2 47
2020-03-11 18:00:00 20.1 4 Sur 12 Sur 0 1018.1 -0.7 42
2020-03-11 17:00:00 21 6 Sudoeste 15 Sur 0 1018.2 -1.1 35
2020-03-11 16:00:00 21.7 8 Sudoeste 16 Sudoeste 0 1018.2 -1.6 34
2020-03-11 15:00:00 21 8 Sudoeste 15 Sur 0 1018.8 -1.6 43
2020-03-11 14:00:00 20.6 9 Sur 19 Sur 0 1019.3 -1.4 46
2020-03-11 13:00:00 21.2 5 Sur 13 Sudoeste 0 1019.8 -1 45
2020-03-11 12:00:00 20.6 6 Sur 13 Sur 0 1020.4 -0.3 48
2020-03-11 11:00:00 20.6 6 Sur 10 Sur 0 1020.7 0.2 48
2020-03-11 10:00:00 19.6 3 Sudeste 7 Sur 0 1020.8 0.8 48
2020-03-11 09:00:00 17.1 3 Sudeste 7 Sur 0 1020.7 1.1 62
2020-03-11 08:00:00 12.6 5 Nordeste 9 Nordeste 0 1020.5 0.8 73
2020-03-11 07:00:00 12.8 6 Nordeste 9 Nordeste 0 1020 -0.2 74
2020-03-11 06:00:00 11.5 0 Calma 4 Norte 0 1019.6 -1.1 70
2020-03-11 05:00:00 12.4 0 Calma 5 Este 0 1019.7 -1.5 67
2020-03-11 04:00:00 12.5 0 Calma 6 Norte 0 1020.2 -1.5 67
2020-03-11 03:00:00 13 3 Nordeste 5 Este 0 1020.7 -1.2 65
2020-03-11 02:00:00 12.9 0 Calma 8 Norte 0 1021.2 -1.1 64
2020-03-11 01:00:00 12.7 3 Norte 6 Norte 0 1021.7 -0.9 66
2020-03-11 00:00:00 12.8 2 Este 8 Norte 0 1021.9 -0.7 68
2020-03-10 23:00:00 13.4 4 Norte 6 Norte 0 1022.3 -0.5 68
2020-03-10 22:00:00 14.6 2 Norte 6 Norte 0 1022.6 0 65
2020-03-10 21:00:00 15.2 3 Norte 6 Noroeste 0 1022.6 0.3 64
2020-03-10 20:00:00 15.3 4 Noroeste 12 Oeste 0 1022.8 0.5 67
2020-03-10 19:00:00 16.2 6 Oeste 13 Oeste 0 1022.6 0.2 65
2020-03-10 18:00:00 17.1 8 Sudoeste 16 Sudoeste 0 1022.3 -0.5 63
2020-03-10 17:00:00 17.8 8 Sur 17 Sudoeste 0 1022.3 -0.9 57
2020-03-10 16:00:00 18.7 11 Sur 21 Sur 0 1022.4 -1.3 51
2020-03-10 15:00:00 19 10 Sur 21 Sur 0 1022.8 -1.1 53
2020-03-10 14:00:00 18.8 11 Sur 23 Sudeste 0 1023.2 -0.4 54
2020-03-10 13:00:00 18.6 13 Sur 25 Sudeste 0 1023.7 0.8 56
2020-03-10 12:00:00 18.9 17 Sudeste 31 Sur 0 1023.9 1.7 50
2020-03-10 11:00:00 18.9 16 Sudeste 31 Sudeste 0 1023.6 2.3 51
2020-03-10 10:00:00 19.1 17 Este 28 Este 0 1022.9 2.2 31
2020-03-10 09:00:00 17.4 12 Este 23 Este 0 1022.2 2.4 35
2020-03-10 08:00:00 15.3 8 Este 14 Este 0 1021.3 1.8 37
2020-03-10 07:00:00 14.4 6 Este 12 Este 0 1020.7 1.5 40
2020-03-10 06:00:00 16.3 7 Este 18 Norte 0 1019.8 0.5 33
2020-03-10 05:00:00 13.4 2 Sudeste 8 Norte 0 1019.5 0 55
2020-03-10 04:00:00 13.4 5 Sur 12 Noroeste 0 1019.2 -0.3 54
2020-03-10 03:00:00 14.3 8 Este 14 Sudeste 0 1019.3 -0.3 51
2020-03-10 02:00:00 12.8 6 Este 12 Sudeste 0 1019.5 -0.1 53
2020-03-10 01:00:00 13.9 3 Norte 10 Nordeste 0 1019.5 0.2 48
2020-03-10 00:00:00 15.2 3 Norte 12 Nordeste 0 1019.6 0.9 43
2020-03-09 23:00:00 14.7 6 Norte 14 Norte 0 1019.6 1.5 45
2020-03-09 22:00:00 14.1 4 Noroeste 12 Noroeste 0 1019.3 1.1 47
2020-03-09 21:00:00 15.5 8 Noroeste 14 Noroeste 0 1018.7 1 47
2020-03-09 20:00:00 16.1 5 Noroeste 9 Noroeste 0 1018.1 0 50
2020-03-09 19:00:00 17.7 5 Oeste 12 Oeste 0 1018.2 -0.7 45
2020-03-09 18:00:00 19.4 5 Sudoeste 20 Sudoeste 0 1017.7 -1.5 41
2020-03-09 17:00:00 20.2 9 Sudoeste 21 Sudoeste 0 1018.1 -1.6 40
2020-03-09 16:00:00 20.5 12 Sur 23 Sudoeste 0 1018.9 -1.3 42
2020-03-09 15:00:00 20.5 14 Sur 24 Sudoeste 0 1019.2 -0.9 42
2020-03-09 14:00:00 20.3 10 Sudoeste 21 Sur 0 1019.7 -0.6 45
2020-03-09 13:00:00 20.9 9 Sur 17 Sudeste 0 1020.2 0.1 41
2020-03-09 12:00:00 20.3 10 Sur 21 Sur 0 1020.1 0.1 42
2020-03-09 11:00:00 21.4 5 Sur 17 Sur 0 1020.3 1.3 35
2020-03-09 10:00:00 18.4 4 Noroeste 14 Sur 0 1020.1 1.8 38
2020-03-09 09:00:00 16.2 4 Oeste 15 Norte 0 1020 2.1 45
2020-03-09 08:00:00 13.9 4 Norte 12 Sur 0 1019 1.3 44
2020-03-09 07:00:00 14.8 5 Nordeste 13 Nordeste 0 1018.3 0.6 33
2020-03-09 06:00:00 13.6 6 Nordeste 14 Nordeste 0 1017.9 -0.3 34
2020-03-09 05:00:00 13 3 Noroeste 16 Noroeste 0 1017.7 -0.7 40
2020-03-09 04:00:00 13.2 5 Noroeste 13 Norte 0 1017.7 -0.6 43
2020-03-09 03:00:00 12.6 2 Norte 13 Norte 0 1018.2 -0.1 56
2020-03-09 02:00:00 13.6 2 Sudeste 10 Nordeste 0 1018.4 -0.7 58
2020-03-09 01:00:00 14.9 5 Sudeste 15 Sudeste 0 1018.3 -0.8 57
2020-03-09 00:00:00 15.1 3 Noroeste 9 Norte 0 1018.3 -0.8 63
2020-03-08 23:00:00 14.8 2 Oeste 10 Norte 0 1019.1 0.4 65
2020-03-08 22:00:00 15.1 4 Norte 8 Nordeste 0 1019.1 0.5 65
2020-03-08 21:00:00 15.1 0 Calma 14 Este 0 1019.1 0.6 64
2020-03-08 20:00:00 15.9 10 Nordeste 15 Nordeste 0 1018.7 -0.1 63
2020-03-08 19:00:00 16.7 7 Este 13 Sudeste 0 1018.6 -0.8 62
2020-03-08 18:00:00 17.6 7 Sudeste 12 Sudeste 0 1018.5 -1.4 57
2020-03-08 17:00:00 19.5 5 Sur 17 Sur 0 1018.8 -2.1 49
2020-03-08 16:00:00 19.6 8 Sur 18 Sur 0 1019.4 -2.3 46
2020-03-08 15:00:00 20 5 Sudoeste 16 Sur 0 1019.9 -2.2 46
2020-03-08 14:00:00 19.9 8 Sudoeste 19 Sur 0 1020.9 -1.3 34
2020-03-08 13:00:00 20.1 7 Sur 16 Sudeste 0 1021.7 -0.3 37
2020-03-08 12:00:00 20.3 8 Sudeste 16 Sudeste 0 1022.1 0 30
2020-03-08 11:00:00 19.2 2 Sudoeste 10 Sur 0 1022.2 1 33
2020-03-08 10:00:00 18.6 2 Sudeste 8 Sudeste 0 1022 1.1 42
2020-03-08 09:00:00 16.2 0 Calma 7 Norte 0 1022.1 1.8 51
2020-03-08 08:00:00 11.6 6 Nordeste 10 Nordeste 0 1021.2 1.1 60
2020-03-08 07:00:00 10.8 3 Oeste 13 Nordeste 0 1020.9 0.5 55
2020-03-08 06:00:00 11.2 9 Noroeste 15 Nordeste 0 1020.3 -0.2 50
2020-03-08 05:00:00 13.5 6 Norte 14 Nordeste 0 1020.1 -0.8 42
2020-03-08 04:00:00 11.5 6 Norte 13 Norte 0 1020.4 -0.5 65
2020-03-08 03:00:00 11.9 3 Nordeste 12 Nordeste 0 1020.5 -0.8 59
2020-03-08 02:00:00 12.3 3 Noroeste 12 Sudoeste 0 1020.9 -0.9 64
2020-03-08 01:00:00 12.6 6 Sudoeste 13 Sudoeste 0 1020.9 -0.6 53
2020-03-08 00:00:00 11.4 2 Sudoeste 8 Noroeste 0 1021.3 0.4 62
2020-03-07 23:00:00 12.5 5 Norte 8 Nordeste 0 1021.8 1.1 69
2020-03-07 22:00:00 12.9 0 Calma 10 Nordeste 0 1021.5 1.5 68
2020-03-07 21:00:00 14.3 5 Norte 12 Oeste 0 1020.9 1.7 66
2020-03-07 20:00:00 14.8 8 Oeste 23 Sudoeste 0 1020.7 1.6 67
2020-03-07 19:00:00 15.5 12 Sudoeste 34 Sudoeste 0 1020 1.1 57
2020-03-07 18:00:00 16.5 18 Sudoeste 36 Sudoeste 0 1019.2 0.3 54
2020-03-07 17:00:00 18 16 Sudoeste 32 Sudoeste 0 1019.1 0.3 47
2020-03-07 16:00:00 19 14 Sudoeste 31 Sudoeste 0 1018.9 -1 31
2020-03-07 15:00:00 19.1 14 Sudoeste 33 Sudoeste 0 1018.9 -1.5 34
2020-03-07 14:00:00 20.7 9 Sur 26 Sur 0 1018.8 -2 22
2020-03-07 13:00:00 19.3 9 Sudeste 25 Este 0 1019.9 -1 25
2020-03-07 12:00:00 18.9 14 Sur 35 Nordeste 0 1020.4 -0.1 21
2020-03-07 11:00:00 18.3 11 Nordeste 34 Norte 0 1020.8 0.7 19
2020-03-07 10:00:00 16.5 10 Norte 30 Noroeste 0 1020.9 0.6 19
2020-03-07 09:00:00 14.9 9 Norte 24 Norte 0 1020.5 0.5 23
2020-03-07 08:00:00 11.5 4 Norte 14 Norte 0 1020.1 0.3 33
2020-03-07 07:00:00 12.1 7 Norte 20 Nordeste 0 1020.3 0.8 32
2020-03-07 06:00:00 13 10 Norte 23 Nordeste 0 1020 0.5 28
2020-03-07 05:00:00 13.4 10 Norte 21 Noroeste 0 1019.8 0.2 26
2020-03-07 04:00:00 13.2 8 Norte 16 Norte 0 1019.5 0.1 26
2020-03-07 03:00:00 13 5 Norte 12 Norte 0 1019.5 0.6 28
2020-03-07 02:00:00 11.9 7 Noroeste 11 Noroeste 0 1019.6 1.2 32
2020-03-07 01:00:00 12.4 6 Noroeste 16 Norte 0 1019.4 1.6 32
2020-03-07 00:00:00 15 8 Norte 17 Norte 0 1018.9 2.3 24
2020-03-06 23:00:00 15.1 3 Norte 15 Norte 0 1018.4 2.9 26
2020-03-06 22:00:00 16.1 9 Norte 18 Norte 0 1017.8 3.4 24
2020-03-06 21:00:00 16.8 4 Norte 25 Norte 0 1016.6 3.3 23
2020-03-06 20:00:00 17.8 7 Nordeste 31 Norte 0 1015.5 2.9 21
2020-03-06 19:00:00 18.9 15 Norte 38 Norte 0 1014.4 2 22
2020-03-06 18:00:00 19.7 18 Noroeste 47 Noroeste 0 1013.3 1.4 22
2020-03-06 17:00:00 20.7 21 Noroeste 48 Noroeste 0 1012.6 0.4 20
2020-03-06 16:00:00 21.5 24 Noroeste 45 Norte 0 1012.4 -0.3 19
2020-03-06 15:00:00 22.8 24 Noroeste 50 Oeste 0 1011.9 -1 18
2020-03-06 14:00:00 22.3 26 Oeste 57 Oeste 0 1012.2 -1.4 21
2020-03-06 13:00:00 21.7 35 Oeste 63 Oeste 0 1012.7 -1.1 23
2020-03-06 12:00:00 20.7 30 Oeste 54 Oeste 0 1012.9 -0.8 26
2020-03-06 11:00:00 18.6 27 Oeste 53 Oeste 0 1013.6 -0.3 29
2020-03-06 10:00:00 17.4 28 Oeste 49 Oeste 0 1013.8 0.4 31
2020-03-06 09:00:00 15.5 25 Oeste 41 Oeste 0 1013.7 0.9 35
2020-03-06 08:00:00 12.9 12 Oeste 35 Noroeste 0 1013.9 1.8 43
2020-03-06 07:00:00 13.5 20 Noroeste 41 Noroeste 0 1013.4 1.7 42
2020-03-06 06:00:00 14.3 23 Noroeste 49 Noroeste 0 1012.8 0.9 40
2020-03-06 05:00:00 15.1 28 Oeste 65 Noroeste 0 1012.1 0.1 38
2020-03-06 04:00:00 15.6 30 Noroeste 56 Oeste 0 1011.7 0 38
2020-03-06 03:00:00 15.9 17 Noroeste 39 Noroeste 0 1011.9 1 38
2020-03-06 02:00:00 15.3 7 Noroeste 17 Noroeste 0 1012 1.3 38
2020-03-06 01:00:00 16.2 7 Noroeste 39 Noroeste 0 1011.7 1.4 37
2020-03-06 00:00:00 17 19 Noroeste 38 Oeste 0 1010.9 0.9 35
2020-03-05 23:00:00 17.1 17 Oeste 30 Noroeste 0 1010.7 1.7 38
2020-03-05 22:00:00 17.9 18 Oeste 30 Noroeste 0 1010.3 2.5 32
2020-03-05 21:00:00 19 13 Oeste 34 Oeste 0 1010 3.1 29
2020-03-05 20:00:00 20.3 19 Oeste 48 Noroeste 0 1009 2.7 26
2020-03-05 19:00:00 21.3 30 Oeste 60 Oeste 0 1007.8 1.4 30
2020-03-05 18:00:00 22.9 35 Oeste 58 Oeste 0 1006.9 0.1 33
2020-03-05 17:00:00 25.2 30 Noroeste 57 Noroeste 0 1006.3 -1.8 30
2020-03-05 16:00:00 21 7 Sur 19 Sur 0 1006.4 -2.7 50
2020-03-05 15:00:00 20.5 7 Sudeste 18 Sudeste 0 1006.8 -3 53
2020-03-05 14:00:00 19.1 4 Sudoeste 17 Sur 0 1008.1 -1.9 57
2020-03-05 13:00:00 20.3 9 Sur 23 Sur 0 1009.1 -1.4 54
2020-03-05 12:00:00 20.4 12 Sur 27 Sur 0 1009.8 -0.9 46
2020-03-05 11:00:00 20.4 15 Sudoeste 26 Sur 0 1010 -0.6 41
2020-03-05 10:00:00 19.7 7 Sudoeste 24 Oeste 0 1010.5 -0.3 40
2020-03-05 09:00:00 16.7 4 Oeste 17 Norte 0 1010.7 -0.8 50
2020-03-05 08:00:00 12.9 9 Noroeste 15 Norte 0 1010.6 -1 63
2020-03-05 07:00:00 11.1 5 Norte 9 Norte 0 1010.8 -1.4 74
2020-03-05 06:00:00 12.2 0 Calma 9 Norte 0 1011.5 -1.3 71
2020-03-05 05:00:00 12.1 3 Nordeste 6 Norte 0 1011.6 -1.6 73
2020-03-05 04:00:00 12.4 3 Norte 6 Nordeste 0 1012.2 -1.5 71
2020-03-05 03:00:00 12.4 0 Calma 5 Este 0 1012.8 -1.4 70
2020-03-05 02:00:00 13.2 3 Nordeste 9 Norte 0 1013.2 -1.1 67
2020-03-05 01:00:00 13.9 0 Calma 4 Norte 0 1013.7 -0.6 67
2020-03-05 00:00:00 14.4 0 Calma 8 Sur 0 1014.2 -0.3 66
2020-03-04 23:00:00 14.9 0 Calma 5 Norte 0 1014.3 -0.1 66
2020-03-04 22:00:00 16.2 3 Este 13 Nordeste 0 1014.3 0.3 64
2020-03-04 21:00:00 15.7 3 Norte 9 Sudoeste 0 1014.5 0.7 78
2020-03-04 20:00:00 16.3 4 Noroeste 9 Sudeste 0 1014.4 0.6 75
2020-03-04 19:00:00 18.2 5 Sudeste 9 Sudeste 0 1014 -0.2 65
2020-03-04 18:00:00 19.8 4 Sudeste 13 Sur 0 1013.8 -1.3 54
2020-03-04 17:00:00 22 8 Sur 14 Sudoeste 0 1013.8 -2 39
2020-03-04 16:00:00 22.4 4 Sudoeste 13 Oeste 0 1014.2 -2.2 41
2020-03-04 15:00:00 20.8 10 Sur 19 Sur 0 1015.1 -1.5 52
2020-03-04 14:00:00 21 7 Sur 23 Sudeste 0 1015.8 -1.1 53
2020-03-04 13:00:00 22.3 6 Sur 29 Sur 0 1016.4 -0.2 43
2020-03-04 12:00:00 23.4 15 Sur 27 Sur 0 1016.6 0.2 39
2020-03-04 11:00:00 24 5 Oeste 22 Norte 0 1016.9 1.2 34
2020-03-04 10:00:00 21.1 13 Noroeste 24 Norte 0 1016.6 1.2 42
2020-03-04 09:00:00 19.5 5 Noroeste 30 Noroeste 0 1016.4 0.9 47
2020-03-04 08:00:00 18.6 16 Noroeste 37 Noroeste 0 1015.7 0.1 49
2020-03-04 07:00:00 18.4 14 Noroeste 43 Noroeste 0 1015.4 -0.1 49
2020-03-04 06:00:00 18.5 19 Noroeste 32 Noroeste 0 1015.5 -0.2 50
2020-03-04 05:00:00 18.6 12 Noroeste 33 Noroeste 0 1015.6 -0.5 48
2020-03-04 04:00:00 19 19 Noroeste 36 Noroeste 0 1015.5 -0.5 47
2020-03-04 03:00:00 18.9 17 Oeste 40 Noroeste 0 1015.7 0.1 47
2020-03-04 02:00:00 18.9 21 Oeste 40 Sudoeste 0 1016.1 0.8 46
2020-03-04 01:00:00 19.1 17 Oeste 37 Oeste 0 1016 1.2 45
2020-03-04 00:00:00 19.3 17 Oeste 45 Oeste 0 1015.6 1.1 43